Garopaba, Brazil
Current Conditions -  °F | °C
As of 10:15 PM on Friday 19 Dec 2014 (Local Time) from SBFL Reporting Station
Light Rain Light Rain  
Wind Chill: 73°   Ceiling: 1100
Heat Index: 73°   Visibility: 4mi
Dew Point: 70°   Wind: 5mph
Humidity: 88%   Direction: 280°W
Pressure: 29.83"   Gusts: NA
Location:  28.07°S, 48.67°W
Report Text: SBFL 200015Z 28004KT 6000 -RA BKN011 BKN025 23/21 Q1010
Loading
Personal Weather Stations






























Interactive Weather Map New forecast layout! Learn more

10-Day Weather Forecast

Advertisements
Track Severe Weather on mobile